Gunnison, CO (81230)

2:52 AM MST on February 11, 2016 (GMT -0700)
West Ruby Ave Weather | | Change Station
CLOSE
Current Station
Personal Weather Station
Location: Gunnison, CO
Elevation: 7713 ft
Nearby Weather Stations

Elev 7713 ft 38.55 °N, 106.93 °W | Updated 11 seconds ago

Clear
Clear
-7.0 °F
Feels Like -7 °F
N
0.0
Wind Variable Wind from East
Gusts 0.0 mph

Today
High -- | Low -- °F
--% Chance of Precip.
Yesterday
High -- | Low -- °F
Precip. -- in
Pressure 30.51 in
Visibility 10.0 miles
Clouds Clear
Windchill -7 °F
Dew Point -19 °F
Humidity 55%
Rainfall 0.00 in
Snow Depth Not available.
7:03 AM 5:40 PM
Waxing Crescent, 11% visible
METAR KGUC 110935Z AUTO 00000KT 10SM CLR M23/M27 A3051 RMK AO1
Pressure 30.51 in
Visibility 10.0 miles
Clouds Clear
Windchill -7 °F
Dew Point -19 °F
Humidity 55%
Rainfall 0.00 in
Snow Depth Not available.
7:03 AM 5:40 PM
Waxing Crescent, 11% visible
METAR KGUC 110935Z AUTO 00000KT 10SM CLR M23/M27 A3051 RMK AO1

10-Day Weather Forecast

Almanac

Astronomy

Feb. 11, 2016 Rise Set
Actual Time
Civil Twilight
Nautical Twilight
Astronomical Twilight
Moon
Length of Visible Light
Length of Day
Tomorrow will be .
, % of the Moon is Illuminated

Today's Extremes

State Highs State Lows

Community

WunderPhotos

Upload Photos

1,892,030 photos uploaded!

WunderBlog® & News

Nearby

Air Quality

  Air Quality AQ Index Pollutant
Not available.

Snow Depth

Station Depth Elevation

Earthquake Activity

City Distance Mag. Time & Date
Minimum magnitude displayed is 2.5.

Coastal Water Temperatures

Place Temperature

Stations

Nearby Weather Stations

Station Location Temp. Windchill Dew Point Humidity Wind Precip. Elev Updated Type
                   

Watches & Warnings

There are currently no watches in effect.